Franconia, New Hampshire
Current Conditions -  °F | °C
As of 12:52 PM on Monday 26 Jan 2015 (Local Time) from KHIE Reporting Station
Clear Clear  
Wind Chill: 11°   Ceiling: Unl
Heat Index: 11°   Visibility: 10mi
Dew Point: -4°   Wind: 3mph
Humidity: 51%   Direction: 250°WSW
Pressure: 30.05"   Gusts: NA
Location:  44.23°N, 71.75°W
Report Text: KHIE 261752Z AUTO 25003KT 10SM CLR M12/M20 A3005 RMK AO2 SLP207 T11171200 11117 21261 58015
Loading
Personal Weather Stations






























Interactive Weather Map New forecast layout! Learn more

10-Day Weather Forecast

Advertisements
Track Severe Weather on mobile